createdAt,value
2017-05-26T00:01:17.446Z,4
2017-05-26T00:02:16.773Z,4
2017-05-26T00:03:17.316Z,4
2017-05-26T00:04:17.252Z,4
2017-05-26T00:05:16.889Z,4
2017-05-26T00:06:17.435Z,4
2017-05-26T00:07:17.078Z,4
2017-05-26T00:08:16.395Z,4
2017-05-26T00:09:16.937Z,4
2017-05-26T00:10:16.876Z,4
2017-05-26T00:11:16.958Z,4
2017-05-26T00:12:16.749Z,4
2017-05-26T00:13:16.384Z,4
2017-05-26T00:14:16.347Z,4
2017-05-26T00:15:16.560Z,4
2017-05-26T00:16:16.803Z,4
2017-05-26T00:17:16.432Z,4
2017-05-26T00:18:15.770Z,4
2017-05-26T00:19:15.708Z,4
2017-05-26T00:20:15.642Z,4
2017-05-26T00:21:16.183Z,4
2017-05-26T00:22:16.122Z,4
2017-05-26T00:23:15.755Z,4
2017-05-26T00:24:15.995Z,4
2017-05-26T00:25:15.632Z,4
2017-05-26T00:26:15.623Z,4
2017-05-26T00:27:15.518Z,4
2017-05-26T00:28:15.751Z,4
2017-05-26T00:29:15.375Z,4
2017-05-26T00:30:15.621Z,4
2017-05-26T00:31:15.557Z,4
2017-05-26T00:32:15.189Z,4
2017-05-26T00:33:15.429Z,4
2017-05-26T00:34:15.369Z,4
2017-05-26T00:35:15.005Z,4
2017-05-26T00:36:15.240Z,4
2017-05-26T00:37:15.477Z,4
2017-05-26T00:38:15.116Z,4
2017-05-26T00:39:14.752Z,4
2017-05-26T00:40:14.994Z,4
2017-05-26T00:41:14.930Z,4
2017-05-26T00:42:15.116Z,4
2017-05-26T00:43:14.803Z,4
2017-05-26T00:44:14.743Z,4
2017-05-26T00:45:14.373Z,4
2017-05-26T00:46:14.618Z,4
2017-05-26T00:47:14.405Z,4
2017-05-26T00:48:14.196Z,4
2017-05-26T00:49:14.131Z,4
2017-05-26T00:50:14.067Z,4
2017-05-26T00:51:13.999Z,4
2017-05-26T00:52:14.234Z,4
2017-05-26T00:53:14.181Z,4
2017-05-26T00:54:14.118Z,4
2017-05-26T00:55:14.053Z,4
2017-05-26T00:56:13.682Z,4
2017-05-26T00:57:13.622Z,4
2017-05-26T00:58:13.860Z,4
2017-05-26T00:59:13.803Z,4
2017-05-26T01:00:13.434Z,4
2017-05-26T01:01:13.382Z,4
2017-05-26T01:02:13.607Z,4
2017-05-26T01:03:13.694Z,4
2017-05-26T01:04:13.181Z,4
2017-05-26T01:05:13.423Z,4
2017-05-26T01:06:13.361Z,4
2017-05-26T01:07:13.305Z,4
2017-05-26T01:08:13.332Z,4
2017-05-26T01:09:13.174Z,4
2017-05-26T01:10:13.119Z,4
2017-05-26T01:11:13.045Z,4
2017-05-26T01:12:12.382Z,4
2017-05-26T01:13:12.569Z,4
2017-05-26T01:14:12.863Z,4
2017-05-26T01:15:12.492Z,4
2017-05-26T01:16:12.128Z,4
2017-05-26T01:17:12.368Z,4
2017-05-26T01:18:12.456Z,4
2017-05-26T01:19:12.544Z,4
2017-05-26T01:20:12.482Z,4
2017-05-26T01:21:12.417Z,4
2017-05-26T01:22:12.048Z,4
2017-05-26T01:23:11.997Z,4
2017-05-26T01:24:12.240Z,4
2017-05-26T01:25:12.172Z,4
2017-05-26T01:26:11.803Z,4
2017-05-26T01:27:11.438Z,4
2017-05-26T01:28:11.972Z,4
2017-05-26T01:29:11.915Z,4
2017-05-26T01:30:11.548Z,4
2017-05-26T01:31:11.797Z,4
2017-05-26T01:32:11.187Z,4
2017-05-26T01:33:11.366Z,4
2017-05-26T01:34:11.754Z,4
2017-05-26T01:35:11.536Z,4
2017-05-26T01:36:11.487Z,4
2017-05-26T01:37:11.421Z,4
2017-05-26T01:38:11.354Z,4
2017-05-26T01:39:25.886Z,4
2017-05-26T01:40:11.228Z,4
2017-05-26T01:41:11.168Z,4
2017-05-26T01:42:11.101Z,4
2017-05-26T01:43:11.042Z,4
2017-05-26T01:44:10.678Z,4
2017-05-26T01:45:10.918Z,4
2017-05-26T01:46:10.543Z,4
2017-05-26T01:47:10.483Z,4
2017-05-26T01:48:10.729Z,4
2017-05-26T01:49:10.659Z,4
2017-05-26T01:50:09.994Z,4
2017-05-26T01:51:09.931Z,4
2017-05-26T01:52:10.177Z,4
2017-05-26T01:53:09.820Z,4
2017-05-26T01:54:10.045Z,4
2017-05-26T01:55:09.680Z,4
2017-05-26T01:56:09.918Z,4
2017-05-26T01:57:09.858Z,4
2017-05-26T01:58:09.801Z,4
2017-05-26T01:59:09.739Z,4
2017-05-26T02:00:09.978Z,4
2017-05-26T02:01:09.608Z,4
2017-05-26T02:02:09.861Z,4
2017-05-26T02:03:09.484Z,4
2017-05-26T02:04:09.721Z,4
2017-05-26T02:05:09.663Z,4
2017-05-26T02:06:09.293Z,4
2017-05-26T02:07:09.541Z,4
2017-05-26T02:08:09.473Z,4
2017-05-26T02:09:09.415Z,4
2017-05-26T02:10:09.348Z,4
2017-05-26T02:11:08.979Z,4
2017-05-26T02:12:09.217Z,4
2017-05-26T02:13:08.857Z,4
2017-05-26T02:14:08.790Z,4
2017-05-26T02:15:08.428Z,4
2017-05-26T02:16:09.033Z,4
2017-05-26T02:17:08.303Z,4
2017-05-26T02:18:08.547Z,4
2017-05-26T02:19:08.789Z,4
2017-05-26T02:20:08.733Z,4
2017-05-26T02:21:08.656Z,4
2017-05-26T02:22:08.595Z,4
2017-05-26T02:23:08.536Z,4
2017-05-26T02:24:08.466Z,4
2017-05-26T02:25:07.799Z,4
2017-05-26T02:26:08.341Z,4
2017-05-26T02:27:07.672Z,4
2017-05-26T02:28:08.217Z,4
2017-05-26T02:29:07.854Z,4
2017-05-26T02:30:07.795Z,4
2017-05-26T02:31:07.722Z,4
2017-05-26T02:32:07.966Z,4
2017-05-26T02:33:07.903Z,4
2017-05-26T02:34:07.838Z,4
2017-05-26T02:35:07.179Z,4
2017-05-26T02:36:07.719Z,4
2017-05-26T02:37:07.352Z,4
2017-05-26T02:38:07.286Z,4
2017-05-26T02:39:07.527Z,4
2017-05-26T02:40:07.162Z,4
2017-05-26T02:41:07.095Z,4
2017-05-26T02:42:07.038Z,4
2017-05-26T02:43:07.275Z,4
2017-05-26T02:44:07.221Z,4
2017-05-26T02:45:07.150Z,4
2017-05-26T02:46:07.090Z,4
2017-05-26T02:47:07.024Z,4
2017-05-26T02:48:06.975Z,4
2017-05-26T02:49:06.918Z,4
2017-05-26T02:50:06.533Z,4
2017-05-26T02:51:06.771Z,4
2017-05-26T02:52:06.710Z,4
2017-05-26T02:53:06.652Z,4
2017-05-26T02:54:06.585Z,4
2017-05-26T02:55:06.525Z,4
2017-05-26T02:56:06.456Z,4
2017-05-26T02:57:05.796Z,4
2017-05-26T02:58:06.339Z,4
2017-05-26T02:59:06.275Z,4
2017-05-26T03:00:06.210Z,8
2017-05-26T03:01:05.841Z,4
2017-05-26T03:02:06.090Z,4
2017-05-26T03:03:05.717Z,4
2017-05-26T03:04:05.965Z,4
2017-05-26T03:05:05.929Z,4
2017-05-26T03:06:05.834Z,4
2017-05-26T03:07:05.477Z,4
2017-05-26T03:08:05.713Z,4
2017-05-26T03:09:05.644Z,4
2017-05-26T03:10:05.586Z,4
2017-05-26T03:11:05.525Z,4
2017-05-26T03:12:05.459Z,8
2017-05-26T03:13:05.399Z,8
2017-05-26T03:14:05.339Z,8
2017-05-26T03:15:05.271Z,8
2017-05-26T03:16:05.205Z,4
2017-05-26T03:17:05.160Z,4
2017-05-26T03:18:04.781Z,8
2017-05-26T03:19:04.415Z,8
2017-05-26T03:20:04.956Z,8
2017-05-26T03:21:04.892Z,8
2017-05-26T03:22:04.830Z,8
2017-05-26T03:23:04.465Z,8
2017-05-26T03:24:04.713Z,8
2017-05-26T03:25:04.648Z,8
2017-05-26T03:26:04.277Z,12
2017-05-26T03:27:04.212Z,12
2017-05-26T03:28:04.153Z,8
2017-05-26T03:29:04.089Z,12
2017-05-26T03:30:03.729Z,12
2017-05-26T03:31:03.968Z,12
2017-05-26T03:32:04.207Z,12
2017-05-26T03:33:04.142Z,12
2017-05-26T03:34:04.081Z,12
2017-05-26T03:35:04.014Z,16
2017-05-26T03:36:03.954Z,12
2017-05-26T03:37:03.891Z,16
2017-05-26T03:38:03.828Z,16
2017-05-26T03:39:03.465Z,16
2017-05-26T03:40:03.706Z,20
2017-05-26T03:41:03.334Z,16
2017-05-26T03:42:03.577Z,20
2017-05-26T03:43:03.515Z,16
2017-05-26T03:44:03.459Z,20
2017-05-26T03:45:03.399Z,20
2017-05-26T03:46:03.326Z,24
2017-05-26T03:47:03.264Z,24
2017-05-26T03:48:02.897Z,24
2017-05-26T03:49:03.347Z,24
2017-05-26T03:50:03.087Z,24
2017-05-26T03:51:03.018Z,20
2017-05-26T03:52:02.955Z,24
2017-05-26T03:53:02.888Z,24
2017-05-26T03:54:03.026Z,24
2017-05-26T03:55:02.762Z,24
2017-05-26T03:56:02.698Z,28
2017-05-26T03:57:02.637Z,24
2017-05-26T03:58:02.575Z,28
2017-05-26T03:59:02.523Z,28
2017-05-26T04:00:02.489Z,24
2017-05-26T04:01:02.392Z,28
2017-05-26T04:02:02.322Z,28
2017-05-26T04:03:02.263Z,24
2017-05-26T04:04:02.201Z,20
2017-05-26T04:05:01.835Z,20
2017-05-26T04:06:01.771Z,32
2017-05-26T04:07:01.713Z,32
2017-05-26T04:08:01.947Z,20
2017-05-26T04:09:01.581Z,20
2017-05-26T04:10:01.518Z,20
2017-05-26T04:11:01.459Z,16
2017-05-26T04:12:01.713Z,16
2017-05-26T04:13:01.636Z,20
2017-05-26T04:14:01.573Z,20
2017-05-26T04:15:01.517Z,16
2017-05-26T04:16:01.458Z,16
2017-05-26T04:17:01.383Z,16
2017-05-26T04:18:01.325Z,16
2017-05-26T04:19:01.262Z,16
2017-05-26T04:20:01.198Z,16
2017-05-26T04:21:01.132Z,16
2017-05-26T04:22:01.073Z,20
2017-05-26T04:23:01.020Z,20
2017-05-26T04:24:00.957Z,20
2017-05-26T04:25:00.581Z,20
2017-05-26T04:26:00.820Z,20
2017-05-26T04:27:00.974Z,28
2017-05-26T04:28:00.706Z,28
2017-05-26T04:29:00.636Z,24
2017-05-26T04:30:00.277Z,20
2017-05-26T04:31:00.511Z,20
2017-05-26T04:32:00.449Z,28
2017-05-26T04:33:00.393Z,24
2017-05-26T04:34:00.345Z,20
2017-05-26T04:35:00.264Z,24
2017-05-26T04:36:00.192Z,20
2017-05-26T04:37:00.128Z,20
2017-05-26T04:38:00.073Z,20
2017-05-26T04:39:00.012Z,20
2017-05-26T04:39:59.942Z,20
2017-05-26T04:40:59.885Z,16
2017-05-26T04:41:59.510Z,20
2017-05-26T04:42:59.755Z,16
2017-05-26T04:43:59.697Z,12
2017-05-26T04:44:59.648Z,16
2017-05-26T04:45:59.264Z,12
2017-05-26T04:46:59.197Z,16
2017-05-26T04:47:59.448Z,12
2017-05-26T04:48:59.384Z,12
2017-05-26T04:49:59.069Z,16
2017-05-26T04:50:59.253Z,16
2017-05-26T04:51:59.200Z,12
2017-05-26T04:52:59.142Z,12
2017-05-26T04:53:59.070Z,12
2017-05-26T04:54:59.008Z,12
2017-05-26T04:55:58.935Z,16
2017-05-26T04:56:58.876Z,16
2017-05-26T04:57:58.822Z,16
2017-05-26T04:58:58.756Z,16
2017-05-26T04:59:58.688Z,16
2017-05-26T05:00:58.626Z,12
2017-05-26T05:01:58.623Z,12
2017-05-26T05:02:58.500Z,16
2017-05-26T05:03:58.437Z,16
2017-05-26T05:05:01.561Z,12
2017-05-26T05:05:58.311Z,16
2017-05-26T05:06:58.263Z,16
2017-05-26T05:07:58.196Z,16
2017-05-26T05:08:57.822Z,16
2017-05-26T05:09:57.769Z,16
2017-05-26T05:10:57.390Z,12
2017-05-26T05:11:57.630Z,16
2017-05-26T05:12:57.580Z,16
2017-05-26T05:13:57.507Z,12
2017-05-26T05:14:57.446Z,12
2017-05-26T05:15:57.683Z,12
2017-05-26T05:16:57.616Z,12
2017-05-26T05:17:57.561Z,12
2017-05-26T05:18:57.497Z,12
2017-05-26T05:19:57.441Z,16
2017-05-26T05:20:57.367Z,16
2017-05-26T05:21:57.004Z,12
2017-05-26T05:22:57.244Z,12
2017-05-26T05:23:56.571Z,12
2017-05-26T05:24:57.118Z,12
2017-05-26T05:25:57.055Z,16
2017-05-26T05:26:56.990Z,16
2017-05-26T05:27:56.929Z,12
2017-05-26T05:28:56.562Z,12
2017-05-26T05:29:56.809Z,12
2017-05-26T05:30:56.137Z,16
2017-05-26T05:31:56.072Z,16
2017-05-26T05:32:56.607Z,12
2017-05-26T05:33:56.557Z,16
2017-05-26T05:34:56.201Z,12
2017-05-26T05:35:56.421Z,16
2017-05-26T05:36:56.365Z,16
2017-05-26T05:37:56.301Z,16
2017-05-26T05:38:56.233Z,12
2017-05-26T05:39:56.178Z,12
2017-05-26T05:40:56.114Z,16
2017-05-26T05:41:55.747Z,12
2017-05-26T05:42:55.984Z,12
2017-05-26T05:43:55.918Z,16
2017-05-26T05:44:55.859Z,12
2017-05-26T05:45:55.810Z,12
2017-05-26T05:46:55.733Z,16
2017-05-26T05:47:55.673Z,12
2017-05-26T05:48:55.627Z,16
2017-05-26T05:49:55.545Z,16
2017-05-26T05:50:54.874Z,12
2017-05-26T05:51:55.432Z,16
2017-05-26T05:52:55.050Z,12
2017-05-26T05:53:54.989Z,12
2017-05-26T05:54:55.227Z,16
2017-05-26T05:55:55.165Z,12
2017-05-26T05:56:55.098Z,16
2017-05-26T05:57:55.042Z,16
2017-05-26T05:58:54.979Z,16
2017-05-26T05:59:54.917Z,16
2017-05-26T06:00:54.854Z,16
2017-05-26T06:01:54.791Z,16
2017-05-26T06:02:54.730Z,16
2017-05-26T06:03:54.665Z,16
2017-05-26T06:04:54.298Z,12
2017-05-26T06:05:54.534Z,16
2017-05-26T06:06:54.475Z,16
2017-05-26T06:07:54.112Z,16
2017-05-26T06:08:54.354Z,16
2017-05-26T06:09:54.281Z,16
2017-05-26T06:10:54.220Z,12
2017-05-26T06:11:54.160Z,16
2017-05-26T06:12:53.491Z,12
2017-05-26T06:13:54.036Z,12
2017-05-26T06:14:53.973Z,12
2017-05-26T06:15:53.908Z,12
2017-05-26T06:16:53.542Z,12
2017-05-26T06:17:53.479Z,16
2017-05-26T06:18:53.414Z,16
2017-05-26T06:19:53.652Z,16
2017-05-26T06:20:53.615Z,16
2017-05-26T06:21:53.532Z,16
2017-05-26T06:22:53.176Z,16
2017-05-26T06:23:53.115Z,16
2017-05-26T06:24:53.342Z,16
2017-05-26T06:25:52.985Z,16
2017-05-26T06:26:53.215Z,20
2017-05-26T06:27:52.845Z,16
2017-05-26T06:28:53.087Z,16
2017-05-26T06:29:52.725Z,16
2017-05-26T06:30:52.661Z,16
2017-05-26T06:31:53.109Z,16
2017-05-26T06:32:52.841Z,16
2017-05-26T06:33:52.478Z,20
2017-05-26T06:34:52.711Z,16
2017-05-26T06:35:52.645Z,16
2017-05-26T06:36:52.584Z,16
2017-05-26T06:37:52.520Z,12
2017-05-26T06:38:52.466Z,12
2017-05-26T06:39:52.395Z,12
2017-05-26T06:40:52.334Z,12
2017-05-26T06:41:52.268Z,12
2017-05-26T06:42:52.205Z,16
2017-05-26T06:43:52.144Z,16
2017-05-26T06:44:52.085Z,16
2017-05-26T06:45:52.019Z,16
2017-05-26T06:46:51.952Z,16
2017-05-26T06:47:51.893Z,20
2017-05-26T06:48:51.525Z,20
2017-05-26T06:49:51.456Z,16
2017-05-26T06:50:51.701Z,16
2017-05-26T06:51:51.639Z,20
2017-05-26T06:52:51.573Z,20
2017-05-26T06:53:51.517Z,16
2017-05-26T06:54:51.450Z,16
2017-05-26T06:55:51.383Z,16
2017-05-26T06:56:51.342Z,16
2017-05-26T06:57:51.284Z,16
2017-05-26T06:58:50.899Z,20
2017-05-26T06:59:50.530Z,20
2017-05-26T07:00:51.217Z,20
2017-05-26T07:01:50.400Z,20
2017-05-26T07:02:50.952Z,20
2017-05-26T07:03:50.884Z,20
2017-05-26T07:04:50.818Z,24
2017-05-26T07:05:50.802Z,24
2017-05-26T07:06:50.689Z,20
2017-05-26T07:07:50.630Z,20
2017-05-26T07:08:50.259Z,20
2017-05-26T07:09:50.501Z,20
2017-05-26T07:10:50.545Z,20
2017-05-26T07:11:50.384Z,20
2017-05-26T07:12:50.311Z,20
2017-05-26T07:13:50.254Z,20
2017-05-26T07:14:50.235Z,20
2017-05-26T07:15:50.423Z,20
2017-05-26T07:16:50.062Z,20
2017-05-26T07:17:50.001Z,20
2017-05-26T07:18:49.634Z,20
2017-05-26T07:19:49.872Z,20
2017-05-26T07:20:49.504Z,20
2017-05-26T07:21:49.746Z,20
2017-05-26T07:22:49.683Z,20
2017-05-26T07:23:49.624Z,20
2017-05-26T07:24:49.561Z,20
2017-05-26T07:25:49.394Z,20
2017-05-26T07:26:49.432Z,20
2017-05-26T07:27:49.486Z,20
2017-05-26T07:28:49.306Z,24
2017-05-26T07:29:48.940Z,20
2017-05-26T07:30:49.228Z,20
2017-05-26T07:31:49.122Z,20
2017-05-26T07:32:49.050Z,24
2017-05-26T07:33:48.994Z,24
2017-05-26T07:34:48.952Z,24
2017-05-26T07:35:48.879Z,24
2017-05-26T07:36:48.492Z,24
2017-05-26T07:37:48.833Z,24
2017-05-26T07:38:48.397Z,24
2017-05-26T07:39:48.620Z,24
2017-05-26T07:40:48.245Z,24
2017-05-26T07:41:48.484Z,24
2017-05-26T07:42:48.423Z,24
2017-05-26T07:43:48.598Z,24
2017-05-26T07:44:48.297Z,28
2017-05-26T07:45:48.230Z,24
2017-05-26T07:46:48.371Z,24
2017-05-26T07:47:48.161Z,28
2017-05-26T07:48:48.042Z,28
2017-05-26T07:49:47.375Z,28
2017-05-26T07:50:47.625Z,28
2017-05-26T07:51:47.853Z,28
2017-05-26T07:52:47.789Z,28
2017-05-26T07:53:47.784Z,32
2017-05-26T07:54:47.664Z,32
2017-05-26T07:55:47.646Z,32
2017-05-26T07:56:47.580Z,32
2017-05-26T07:57:47.264Z,32
2017-05-26T07:58:47.442Z,36
2017-05-26T07:59:47.350Z,32
2017-05-26T08:00:47.763Z,28
2017-05-26T08:01:47.225Z,28
2017-05-26T08:02:46.855Z,32
2017-05-26T08:03:47.184Z,36
2017-05-26T08:04:47.139Z,32
2017-05-26T08:05:47.011Z,36
2017-05-26T08:06:46.905Z,40
2017-05-26T08:07:46.838Z,36
2017-05-26T08:08:46.784Z,40
2017-05-26T08:09:46.718Z,36
2017-05-26T08:10:45.761Z,36
2017-05-26T08:11:45.988Z,40
2017-05-26T08:12:45.934Z,36
2017-05-26T08:13:46.528Z,36
2017-05-26T08:14:46.119Z,40
2017-05-26T08:15:45.773Z,36
2017-05-26T08:16:46.274Z,40
2017-05-26T08:17:46.216Z,40
2017-05-26T08:18:45.915Z,40
2017-05-26T08:19:45.853Z,36
2017-05-26T08:20:45.766Z,40
2017-05-26T08:21:45.673Z,40
2017-05-26T08:22:45.639Z,40
2017-05-26T08:23:45.554Z,40
2017-05-26T08:24:45.781Z,40
2017-05-26T08:25:45.702Z,48
2017-05-26T08:26:45.339Z,52
2017-05-26T08:27:45.594Z,48
2017-05-26T08:28:44.960Z,48
2017-05-26T08:29:45.461Z,44
2017-05-26T08:30:45.394Z,52
2017-05-26T08:31:45.319Z,52
2017-05-26T08:32:45.265Z,56
2017-05-26T08:33:45.205Z,52
2017-05-26T08:34:44.846Z,52
2017-05-26T08:35:45.078Z,52
2017-05-26T08:36:45.012Z,48
2017-05-26T08:37:44.963Z,48
2017-05-26T08:38:44.618Z,52
2017-05-26T08:39:44.514Z,52
2017-05-26T08:40:44.456Z,52
2017-05-26T08:41:44.702Z,56
2017-05-26T08:42:44.646Z,52
2017-05-26T08:43:44.577Z,48
2017-05-26T08:44:44.514Z,52
2017-05-26T08:45:44.141Z,48
2017-05-26T08:46:44.377Z,52
2017-05-26T08:47:44.328Z,56
2017-05-26T08:48:43.644Z,56
2017-05-26T08:49:44.214Z,56
2017-05-26T08:50:44.179Z,52
2017-05-26T08:51:44.064Z,52
2017-05-26T08:52:43.699Z,64
2017-05-26T08:53:43.634Z,92
2017-05-26T08:54:43.876Z,80
2017-05-26T08:55:43.809Z,72
2017-05-26T08:56:43.743Z,68
2017-05-26T08:57:43.682Z,64
2017-05-26T08:58:43.622Z,64
2017-05-26T08:59:43.253Z,64
2017-05-26T09:00:43.531Z,56
2017-05-26T09:01:43.430Z,56
2017-05-26T09:02:43.367Z,60
2017-05-26T09:03:43.310Z,52
2017-05-26T09:04:42.941Z,52
2017-05-26T09:05:43.177Z,52
2017-05-26T09:06:43.126Z,56
2017-05-26T09:07:42.746Z,60
2017-05-26T09:08:43.018Z,64
2017-05-26T09:09:42.970Z,64
2017-05-26T09:10:42.860Z,60
2017-05-26T09:11:42.799Z,68
2017-05-26T09:12:42.732Z,68
2017-05-26T09:13:42.700Z,76
2017-05-26T09:14:42.680Z,68
2017-05-26T09:15:42.273Z,68
2017-05-26T09:16:42.181Z,68
2017-05-26T09:17:42.118Z,68
2017-05-26T09:18:42.366Z,56
2017-05-26T09:19:41.939Z,56
2017-05-26T09:20:41.624Z,52
2017-05-26T09:21:42.174Z,56
2017-05-26T09:22:42.101Z,56
2017-05-26T09:23:42.048Z,124
2017-05-26T09:24:41.997Z,116
2017-05-26T09:25:41.926Z,80
2017-05-26T09:26:41.246Z,116
2017-05-26T09:27:41.821Z,96
2017-05-26T09:28:41.727Z,84
2017-05-26T09:29:41.361Z,64
2017-05-26T09:30:41.297Z,96
2017-05-26T09:31:41.533Z,84
2017-05-26T09:32:41.165Z,76
2017-05-26T09:33:41.114Z,148
2017-05-26T09:34:41.043Z,152
2017-05-26T09:35:41.378Z,84
2017-05-26T09:36:41.266Z,172
2017-05-26T09:37:41.162Z,188
2017-05-26T09:38:40.795Z,148
2017-05-26T09:39:41.030Z,124
2017-05-26T09:40:40.965Z,72
2017-05-26T09:41:40.599Z,72
2017-05-26T09:42:40.843Z,80
2017-05-26T09:43:40.781Z,92
2017-05-26T09:44:40.451Z,72
2017-05-26T09:45:40.651Z,104
2017-05-26T09:46:40.285Z,148
2017-05-26T09:47:40.528Z,152
2017-05-26T09:48:40.480Z,84
2017-05-26T09:49:40.407Z,92
2017-05-26T09:50:40.338Z,56
2017-05-26T09:51:40.270Z,208
2017-05-26T09:52:40.214Z,208
2017-05-26T09:53:40.155Z,216
2017-05-26T09:54:40.080Z,204
2017-05-26T09:55:40.018Z,208
2017-05-26T09:56:39.960Z,204
2017-05-26T09:57:39.593Z,208
2017-05-26T09:58:39.835Z,212
2017-05-26T09:59:39.780Z,220
2017-05-26T10:00:39.708Z,220
2017-05-26T10:01:39.340Z,72
2017-05-26T10:02:39.581Z,212
2017-05-26T10:03:39.517Z,208
2017-05-26T10:04:39.459Z,224
2017-05-26T10:05:39.126Z,236
2017-05-26T10:06:39.345Z,228
2017-05-26T10:07:39.270Z,232
2017-05-26T10:08:38.905Z,228
2017-05-26T10:09:39.148Z,196
2017-05-26T10:10:39.108Z,196
2017-05-26T10:11:39.019Z,220
2017-05-26T10:12:38.647Z,96
2017-05-26T10:13:38.587Z,232
2017-05-26T10:14:38.219Z,220
2017-05-26T10:15:38.757Z,60
2017-05-26T10:16:38.696Z,64
2017-05-26T10:17:38.629Z,56
2017-05-26T10:18:38.576Z,76
2017-05-26T10:19:38.503Z,244
2017-05-26T10:20:38.145Z,256
2017-05-26T10:21:38.082Z,264
2017-05-26T10:22:38.349Z,256
2017-05-26T10:23:38.255Z,240
2017-05-26T10:24:38.190Z,232
2017-05-26T10:25:37.847Z,248
2017-05-26T10:26:37.761Z,228
2017-05-26T10:27:38.005Z,232
2017-05-26T10:28:37.947Z,176
2017-05-26T10:29:37.876Z,236
2017-05-26T10:30:37.812Z,156
2017-05-26T10:31:37.445Z,92
2017-05-26T10:32:37.692Z,44
2017-05-26T10:33:37.623Z,240
2017-05-26T10:34:37.624Z,236
2017-05-26T10:35:37.495Z,236
2017-05-26T10:36:37.433Z,232
2017-05-26T10:37:37.370Z,232
2017-05-26T10:38:36.711Z,224
2017-05-26T10:39:36.940Z,224
2017-05-26T10:40:37.181Z,104
2017-05-26T10:41:36.811Z,228
2017-05-26T10:42:37.062Z,48
2017-05-26T10:43:36.991Z,88
2017-05-26T10:44:36.932Z,112
2017-05-26T10:45:36.862Z,224
2017-05-26T10:46:36.818Z,188
2017-05-26T10:47:36.738Z,212
2017-05-26T10:48:36.678Z,204
2017-05-26T10:49:36.630Z,184
2017-05-26T10:50:36.262Z,200
2017-05-26T10:51:36.533Z,188
2017-05-26T10:52:36.430Z,184
2017-05-26T10:53:36.359Z,184
2017-05-26T10:54:36.294Z,180
2017-05-26T10:55:36.237Z,180
2017-05-26T10:56:36.177Z,176
2017-05-26T10:57:36.110Z,172
2017-05-26T10:58:36.051Z,172
2017-05-26T10:59:35.981Z,172
2017-05-26T11:00:35.618Z,164
2017-05-26T11:01:35.857Z,164
2017-05-26T11:02:35.496Z,168
2017-05-26T11:03:35.428Z,164
2017-05-26T11:04:35.363Z,168
2017-05-26T11:05:35.609Z,68
2017-05-26T11:06:35.540Z,56
2017-05-26T11:07:35.170Z,156
2017-05-26T11:08:35.419Z,168
2017-05-26T11:09:35.350Z,164
2017-05-26T11:10:35.291Z,168
2017-05-26T11:11:35.231Z,124
2017-05-26T11:12:35.171Z,164
2017-05-26T11:13:35.106Z,132
2017-05-26T11:14:34.739Z,148
2017-05-26T11:15:34.973Z,148
2017-05-26T11:16:34.916Z,52
2017-05-26T11:17:34.849Z,156
2017-05-26T11:18:34.789Z,112
2017-05-26T11:19:34.722Z,152
2017-05-26T11:20:34.962Z,64
2017-05-26T11:21:34.296Z,36
2017-05-26T11:22:34.538Z,56
2017-05-26T11:23:34.484Z,140
2017-05-26T11:24:34.409Z,104
2017-05-26T11:25:34.353Z,132
2017-05-26T11:26:34.310Z,76
2017-05-26T11:27:33.918Z,96
2017-05-26T11:28:34.155Z,144
2017-05-26T11:29:34.094Z,140
2017-05-26T11:30:34.031Z,120
2017-05-26T11:31:33.967Z,148
2017-05-26T11:32:33.947Z,140
2017-05-26T11:33:33.840Z,48
2017-05-26T11:34:33.783Z,56
2017-05-26T11:35:33.723Z,120
2017-05-26T11:36:33.353Z,64
2017-05-26T11:37:33.599Z,144
2017-05-26T11:38:33.219Z,136
2017-05-26T11:39:33.176Z,140
2017-05-26T11:40:33.402Z,136
2017-05-26T11:41:33.028Z,136
2017-05-26T11:42:32.979Z,136
2017-05-26T11:43:33.218Z,136
2017-05-26T11:44:33.149Z,132
2017-05-26T11:45:33.080Z,128
2017-05-26T11:46:32.716Z,124
2017-05-26T11:47:32.654Z,132
2017-05-26T11:48:32.588Z,132
2017-05-26T11:49:32.530Z,120
2017-05-26T11:50:32.161Z,52
2017-05-26T11:51:32.726Z,64
2017-05-26T11:52:32.640Z,52
2017-05-26T11:53:32.277Z,48
2017-05-26T11:54:32.520Z,44
2017-05-26T11:55:32.150Z,48
2017-05-26T11:56:32.388Z,120
2017-05-26T11:57:32.154Z,120
2017-05-26T11:58:32.162Z,120
2017-05-26T11:59:32.205Z,120
2017-05-26T12:00:32.136Z,124
2017-05-26T12:01:31.863Z,124
2017-05-26T12:02:32.050Z,128
2017-05-26T12:03:31.643Z,104
2017-05-26T12:04:31.889Z,128
2017-05-26T12:05:31.619Z,128
2017-05-26T12:06:31.758Z,128
2017-05-26T12:07:31.392Z,124
2017-05-26T12:08:31.634Z,124
2017-05-26T12:09:31.271Z,116
2017-05-26T12:10:31.676Z,120
2017-05-26T12:11:31.138Z,120
2017-05-26T12:12:31.079Z,120
2017-05-26T12:13:31.016Z,120
2017-05-26T12:14:30.660Z,120
2017-05-26T12:15:31.193Z,120
2017-05-26T12:16:30.823Z,124
2017-05-26T12:17:30.763Z,124
2017-05-26T12:18:31.001Z,120
2017-05-26T12:19:30.935Z,124
2017-05-26T12:20:30.572Z,124
2017-05-26T12:21:30.507Z,124
2017-05-26T12:22:30.443Z,124
2017-05-26T12:23:30.383Z,132
2017-05-26T12:24:30.623Z,132
2017-05-26T12:25:30.257Z,140
2017-05-26T12:26:30.491Z,140
2017-05-26T12:27:30.438Z,136
2017-05-26T12:28:30.378Z,140
2017-05-26T12:29:30.365Z,140
2017-05-26T12:30:29.939Z,136
2017-05-26T12:31:30.255Z,136
2017-05-26T12:32:30.119Z,108
2017-05-26T12:33:30.050Z,128
2017-05-26T12:34:29.991Z,132
2017-05-26T12:35:29.941Z,132
2017-05-26T12:36:29.863Z,136
2017-05-26T12:37:29.797Z,140
2017-05-26T12:38:29.434Z,136
2017-05-26T12:39:29.373Z,140
2017-05-26T12:40:29.666Z,144
2017-05-26T12:41:29.550Z,140
2017-05-26T12:42:29.180Z,148
2017-05-26T12:43:29.475Z,152
2017-05-26T12:44:28.754Z,152
2017-05-26T12:45:29.355Z,156
2017-05-26T12:46:29.234Z,132
2017-05-26T12:47:29.181Z,76
2017-05-26T12:48:29.104Z,144
2017-05-26T12:49:29.043Z,160
2017-05-26T12:50:28.427Z,164
2017-05-26T12:51:28.615Z,148
2017-05-26T12:52:28.554Z,96
2017-05-26T12:53:28.803Z,152
2017-05-26T12:54:28.734Z,152
2017-05-26T12:55:28.669Z,148
2017-05-26T12:56:28.609Z,148
2017-05-26T12:57:28.541Z,152
2017-05-26T12:58:28.178Z,152
2017-05-26T12:59:28.116Z,156
2017-05-26T13:00:28.046Z,72
2017-05-26T13:01:27.979Z,48
2017-05-26T13:02:28.227Z,44
2017-05-26T13:03:28.173Z,48
2017-05-26T13:04:28.107Z,52
2017-05-26T13:05:27.726Z,160
2017-05-26T13:06:27.672Z,56
2017-05-26T13:07:27.606Z,108
2017-05-26T13:08:27.844Z,120
2017-05-26T13:09:27.180Z,52
2017-05-26T13:10:27.412Z,48
2017-05-26T13:11:27.353Z,48
2017-05-26T13:12:27.593Z,44
2017-05-26T13:13:27.531Z,40
2017-05-26T13:14:27.168Z,40
2017-05-26T13:15:27.401Z,40
2017-05-26T13:16:27.039Z,40
2017-05-26T13:17:26.982Z,40
2017-05-26T13:18:27.220Z,44
2017-05-26T13:19:27.151Z,68
2017-05-26T13:20:26.482Z,48
2017-05-26T13:21:27.030Z,44
2017-05-26T13:22:26.655Z,44
2017-05-26T13:23:26.896Z,164
2017-05-26T13:24:26.532Z,156
2017-05-26T13:25:26.471Z,156
2017-05-26T13:26:26.407Z,156
2017-05-26T13:27:26.348Z,160
2017-05-26T13:28:26.285Z,164
2017-05-26T13:29:26.220Z,100
2017-05-26T13:30:26.154Z,52
2017-05-26T13:31:26.084Z,48
2017-05-26T13:32:25.724Z,44
2017-05-26T13:33:26.280Z,40
2017-05-26T13:34:26.199Z,36
2017-05-26T13:35:26.139Z,32
2017-05-26T13:36:26.077Z,36
2017-05-26T13:37:26.013Z,32
2017-05-26T13:38:25.946Z,36
2017-05-26T13:39:25.592Z,36
2017-05-26T13:40:25.827Z,40
2017-05-26T13:41:25.757Z,36
2017-05-26T13:42:25.396Z,40
2017-05-26T13:43:25.327Z,48
2017-05-26T13:44:25.567Z,56
2017-05-26T13:45:25.511Z,132
2017-05-26T13:46:25.446Z,136
2017-05-26T13:47:25.383Z,116
2017-05-26T13:48:24.713Z,136
2017-05-26T13:49:24.947Z,136
2017-05-26T13:50:24.587Z,136
2017-05-26T13:51:25.127Z,136
2017-05-26T13:52:24.760Z,132
2017-05-26T13:53:25.004Z,132
2017-05-26T13:54:24.633Z,128
2017-05-26T13:55:24.882Z,128
2017-05-26T13:56:24.818Z,120
2017-05-26T13:57:24.144Z,124
2017-05-26T13:58:24.685Z,96
2017-05-26T13:59:24.016Z,120
2017-05-26T14:00:23.951Z,112
2017-05-26T14:01:24.497Z,112
2017-05-26T14:02:24.127Z,112
2017-05-26T14:03:24.078Z,112
2017-05-26T14:04:24.299Z,112
2017-05-26T14:05:23.942Z,108
2017-05-26T14:06:23.579Z,108
2017-05-26T14:07:23.818Z,112
2017-05-26T14:08:24.056Z,104
2017-05-26T14:09:23.990Z,104
2017-05-26T14:10:23.629Z,104
2017-05-26T14:11:23.563Z,100
2017-05-26T14:12:23.797Z,96
2017-05-26T14:13:23.435Z,96
2017-05-26T14:14:23.670Z,96
2017-05-26T14:15:23.614Z,96